Time;durP1;ratioP1;P1;durP2;ratioP2;P2;SDS_P1;SDS_P2;PMS_P1;PMS_P2;Temp;Humidity;BMP_temperature;BMP_pressure;BME280_temperature;BME280_humidity;BME280_pressure;Samples;Min_cycle;Max_cycle;Signal;HPM_P1;HPM_P2
2024/01/08 00:01:36;;;;;;;7.10;3.25;;;-0.50;99.90;;;;;;5094819;28;20040;-76
2024/01/08 00:04:03;;;;;;;6.57;3.13;;;-0.50;99.90;;;;;;5111174;28;20034;-77
2024/01/08 00:06:29;;;;;;;8.50;3.05;;;-0.50;99.90;;;;;;5144732;27;20575;-77
2024/01/08 00:08:55;;;;;;;7.80;2.90;;;-0.60;99.90;;;;;;5145786;27;20084;-77
2024/01/08 00:11:21;;;;;;;8.35;3.35;;;-0.70;99.90;;;;;;5115474;28;20445;-77
2024/01/08 00:13:46;;;;;;;7.82;3.05;;;-0.70;99.90;;;;;;5112760;27;20407;-77
2024/01/08 00:16:12;;;;;;;7.15;2.97;;;-0.70;99.90;;;;;;5098454;28;20062;-77
2024/01/08 00:18:38;;;;;;;9.32;3.38;;;-0.70;99.90;;;;;;5130229;27;20063;-77
2024/01/08 00:21:03;;;;;;;7.75;3.63;;;-0.70;99.90;;;;;;5131657;27;20032;-77
2024/01/08 00:23:30;;;;;;;7.55;2.85;;;-0.70;99.90;;;;;;5113015;28;20039;-77
2024/01/08 00:25:56;;;;;;;7.40;3.08;;;-0.80;99.90;;;;;;5132403;27;20404;-77
2024/01/08 00:28:22;;;;;;;11.98;3.70;;;-0.80;99.90;;;;;;5149175;27;20036;-77
2024/01/08 00:30:48;;;;;;;12.23;3.45;;;-0.90;99.90;;;;;;5146552;27;20039;-77
2024/01/08 00:33:13;;;;;;;7.63;3.03;;;-0.90;99.90;;;;;;5096450;27;20103;-77
2024/01/08 00:35:39;;;;;;;8.80;3.08;;;-0.80;99.90;;;;;;5115107;28;20067;-77
2024/01/08 00:38:05;;;;;;;7.57;3.40;;;-0.80;99.90;;;;;;5114970;28;20487;-77
2024/01/08 00:40:30;;;;;;;8.50;3.13;;;-0.90;99.90;;;;;;5095362;28;20088;-77
2024/01/08 00:42:57;;;;;;;9.65;3.40;;;-0.90;99.90;;;;;;5114658;28;20032;-77
2024/01/08 00:45:23;;;;;;;7.85;3.45;;;-0.90;99.90;;;;;;5096123;27;20036;-77
2024/01/08 00:47:49;;;;;;;7.03;3.25;;;-0.90;99.90;;;;;;5097768;28;20131;-77
2024/01/08 00:50:15;;;;;;;7.03;3.35;;;-1.00;99.90;;;;;;5112983;28;20459;-77
2024/01/08 00:52:41;;;;;;;8.75;3.72;;;-1.00;99.90;;;;;;5097015;28;20101;-77
2024/01/08 00:55:07;;;;;;;7.05;3.42;;;-1.00;99.90;;;;;;5096772;28;20512;-77
2024/01/08 00:57:33;;;;;;;8.27;3.60;;;-1.00;99.90;;;;;;5096509;28;20047;-77
2024/01/08 00:59:59;;;;;;;8.30;3.63;;;-1.00;99.90;;;;;;5130553;27;20051;-77
2024/01/08 01:02:25;;;;;;;9.13;3.65;;;-1.10;99.90;;;;;;5115444;27;20461;-76
2024/01/08 01:04:51;;;;;;;7.68;3.30;;;-1.10;99.90;;;;;;5113481;28;20043;-76
2024/01/08 01:07:16;;;;;;;7.72;3.85;;;-1.10;99.90;;;;;;5111002;27;20043;-77
2024/01/08 01:09:42;;;;;;;9.05;3.47;;;-1.10;99.90;;;;;;5128708;27;20063;-77
2024/01/08 01:12:09;;;;;;;7.57;3.53;;;-1.10;99.90;;;;;;5113339;28;20039;-77
2024/01/08 01:14:35;;;;;;;10.07;3.90;;;-1.00;99.90;;;;;;5147516;27;20047;-77
2024/01/08 01:17:01;;;;;;;8.23;3.55;;;-1.00;99.90;;;;;;5097418;28;20035;-77
2024/01/08 01:19:27;;;;;;;8.27;3.92;;;-1.10;99.90;;;;;;5094257;28;20063;-77
2024/01/08 01:21:53;;;;;;;6.68;2.90;;;-1.00;99.90;;;;;;5097208;28;20090;-77
2024/01/08 01:24:19;;;;;;;9.73;3.88;;;-1.00;99.90;;;;;;5113734;27;20084;-77
2024/01/08 01:26:44;;;;;;;10.05;4.15;;;-1.00;99.90;;;;;;5145952;27;20110;-76
2024/01/08 01:29:10;;;;;;;6.90;3.10;;;-0.90;99.90;;;;;;5111726;28;20036;-77
2024/01/08 01:31:36;;;;;;;8.45;3.47;;;-0.90;99.90;;;;;;5096949;28;20189;-77
2024/01/08 01:34:02;;;;;;;7.50;3.40;;;-1.00;99.90;;;;;;5113333;27;20046;-77
2024/01/08 01:36:27;;;;;;;8.98;3.92;;;-1.00;99.90;;;;;;5147405;27;20168;-77
2024/01/08 01:38:54;;;;;;;9.25;3.35;;;-1.00;99.90;;;;;;5146671;27;20043;-77
2024/01/08 01:41:19;;;;;;;11.63;4.25;;;-1.00;99.90;;;;;;5096532;28;20043;-77
2024/01/08 01:43:45;;;;;;;7.38;3.45;;;-0.90;99.90;;;;;;5147155;27;20031;-77
2024/01/08 01:46:33;;;;;;;8.27;3.55;;;-0.90;99.90;;;;;;5129714;27;20036;-77
2024/01/08 01:48:59;;;;;;;7.53;3.50;;;-0.90;99.90;;;;;;5094079;28;20035;-77
2024/01/08 01:51:25;;;;;;;9.15;4.03;;;-0.90;99.90;;;;;;5101943;28;20046;-77
2024/01/08 01:53:52;;;;;;;9.18;3.83;;;-0.90;99.90;;;;;;5140503;27;20422;-76
2024/01/08 01:56:18;;;;;;;10.70;4.70;;;-0.80;99.90;;;;;;5099324;27;20043;-76
2024/01/08 01:58:45;;;;;;;8.27;4.05;;;-0.80;99.90;;;;;;5104697;27;20077;-76
2024/01/08 02:01:11;;;;;;;8.68;4.20;;;-0.70;99.90;;;;;;5130505;27;20050;-77
2024/01/08 02:03:37;;;;;;;9.07;4.40;;;-0.80;99.90;;;;;;5146548;27;20043;-77
2024/01/08 02:06:08;;;;;;;9.05;4.65;;;-0.80;99.90;;;;;;5109590;28;20040;-77
2024/01/08 02:08:34;;;;;;;9.00;4.25;;;-0.80;99.90;;;;;;5128513;27;20035;-77
2024/01/08 02:11:01;;;;;;;8.90;4.53;;;-0.80;99.90;;;;;;5096127;28;20080;-77
2024/01/08 02:13:26;;;;;;;9.50;4.20;;;-0.70;99.90;;;;;;5096044;28;20046;-77
2024/01/08 02:15:52;;;;;;;9.18;4.68;;;-0.70;99.90;;;;;;5112600;28;20032;-77
2024/01/08 02:18:19;;;;;;;9.45;4.30;;;-0.70;99.90;;;;;;5129631;27;20043;-77
2024/01/08 02:20:45;;;;;;;9.18;4.43;;;-0.70;99.90;;;;;;5112154;28;20039;-77
2024/01/08 02:23:10;;;;;;;10.18;4.47;;;-0.70;99.90;;;;;;5147332;27;20118;-77
2024/01/08 02:25:37;;;;;;;8.38;4.47;;;-0.70;99.90;;;;;;5128352;27;20110;-77
2024/01/08 02:28:03;;;;;;;11.85;3.88;;;-0.80;99.90;;;;;;5111624;28;20487;-77
2024/01/08 02:30:28;;;;;;;10.82;4.78;;;-0.70;99.90;;;;;;5112168;28;20051;-77
2024/01/08 02:32:54;;;;;;;8.77;4.82;;;-0.70;99.90;;;;;;5112692;28;20518;-77
2024/01/08 02:35:19;;;;;;;7.60;3.85;;;-0.60;99.90;;;;;;5112236;28;20097;-77
2024/01/08 02:37:45;;;;;;;8.20;4.30;;;-0.50;99.90;;;;;;5124794;27;20513;-77
2024/01/08 02:40:12;;;;;;;9.88;5.00;;;-0.60;99.90;;;;;;5095860;28;20040;-77
2024/01/08 02:42:41;;;;;;;10.27;4.22;;;-0.60;99.90;;;;;;5129665;27;20057;-77
2024/01/08 02:45:08;;;;;;;9.63;4.85;;;-0.60;99.90;;;;;;5128649;27;20040;-77
2024/01/08 02:47:37;;;;;;;9.43;4.90;;;-0.60;99.90;;;;;;5128176;27;20434;-77
2024/01/08 02:50:05;;;;;;;10.38;5.13;;;-0.60;99.90;;;;;;5075356;28;20036;-77
2024/01/08 02:52:31;;;;;;;8.82;4.53;;;-0.60;99.90;;;;;;5128100;27;20180;-77
2024/01/08 02:54:57;;;;;;;10.90;4.82;;;-0.50;99.90;;;;;;5110424;28;20049;-77
2024/01/08 02:57:22;;;;;;;12.48;4.95;;;-0.50;99.90;;;;;;5111126;28;20043;-77
2024/01/08 02:59:48;;;;;;;10.65;5.25;;;-0.40;99.90;;;;;;5145414;27;20061;-77
2024/01/08 03:02:15;;;;;;;10.88;5.18;;;-0.40;99.90;;;;;;5095897;28;20044;-77
2024/01/08 03:04:40;;;;;;;10.95;5.18;;;-0.40;99.90;;;;;;5095008;28;20043;-77
2024/01/08 03:07:06;;;;;;;10.88;5.03;;;-0.30;99.90;;;;;;5112413;28;20036;-77
2024/01/08 03:09:31;;;;;;;14.23;5.70;;;-0.40;99.90;;;;;;5128198;28;20071;-77
2024/01/08 03:11:57;;;;;;;9.20;4.80;;;-0.40;99.90;;;;;;5093985;28;20046;-76
2024/01/08 03:14:23;;;;;;;12.73;4.05;;;-0.40;99.90;;;;;;5145053;27;20491;-76
2024/01/08 03:16:48;;;;;;;9.73;4.60;;;-0.30;99.90;;;;;;5095302;28;20038;-77
2024/01/08 03:19:14;;;;;;;9.63;4.03;;;-0.30;99.90;;;;;;5094303;28;20067;-77
2024/01/08 03:21:39;;;;;;;9.95;4.65;;;-0.30;99.90;;;;;;5095239;28;20083;-76
2024/01/08 03:24:05;;;;;;;7.65;3.88;;;-0.40;99.90;;;;;;5110333;28;20043;-76
2024/01/08 03:26:31;;;;;;;12.60;4.50;;;-0.40;99.90;;;;;;5095200;28;20460;-76
2024/01/08 03:28:58;;;;;;;7.72;4.03;;;-0.40;99.90;;;;;;5145628;27;20055;-76
2024/01/08 03:31:23;;;;;;;8.35;4.38;;;-0.40;99.90;;;;;;5128553;28;20047;-76
2024/01/08 03:33:49;;;;;;;11.20;4.43;;;-0.40;99.90;;;;;;5128109;28;20039;-76
2024/01/08 03:36:14;;;;;;;6.28;3.40;;;-0.30;99.90;;;;;;5129196;28;20036;-77
2024/01/08 03:38:41;;;;;;;10.15;4.55;;;-0.30;99.90;;;;;;5128418;27;20110;-77
2024/01/08 03:41:06;;;;;;;13.00;4.85;;;-0.40;99.90;;;;;;5128860;27;20145;-76
2024/01/08 03:43:32;;;;;;;10.50;3.92;;;-0.40;99.90;;;;;;5133359;27;20078;-76
2024/01/08 03:45:58;;;;;;;8.70;3.90;;;-0.40;99.90;;;;;;5113885;27;20027;-76
2024/01/08 03:48:23;;;;;;;8.82;3.42;;;-0.40;99.90;;;;;;5132069;27;20040;-76
2024/01/08 03:50:49;;;;;;;8.38;3.92;;;-0.40;99.90;;;;;;5149045;27;20113;-76
2024/01/08 03:53:14;;;;;;;5.95;2.92;;;-0.50;99.90;;;;;;5115883;28;20040;-77
2024/01/08 03:55:40;;;;;;;8.23;3.83;;;-0.50;99.90;;;;;;5098385;28;20456;-77
2024/01/08 03:58:06;;;;;;;11.45;4.65;;;-0.40;99.90;;;;;;5132626;27;20126;-77
2024/01/08 04:00:31;;;;;;;8.65;3.20;;;-0.50;99.90;;;;;;5131118;27;20046;-77
2024/01/08 04:02:57;;;;;;;9.10;3.85;;;-0.40;99.90;;;;;;5115548;28;20119;-77
2024/01/08 04:05:23;;;;;;;7.82;3.80;;;-0.40;99.90;;;;;;5131954;27;20039;-77
2024/01/08 04:07:48;;;;;;;7.95;3.85;;;-0.50;99.90;;;;;;5115909;28;20036;-77
2024/01/08 04:10:14;;;;;;;8.57;3.47;;;-0.50;99.90;;;;;;5115578;28;20522;-77
2024/01/08 04:12:39;;;;;;;6.03;2.92;;;-0.50;99.90;;;;;;5147695;27;20043;-77
2024/01/08 04:15:06;;;;;;;7.43;3.67;;;-0.50;99.90;;;;;;5131571;27;20400;-77
2024/01/08 04:17:31;;;;;;;9.10;3.83;;;-0.50;99.90;;;;;;5132820;27;20075;-77
2024/01/08 04:19:57;;;;;;;8.43;4.03;;;-0.50;99.90;;;;;;5131310;27;20527;-77
2024/01/08 04:22:23;;;;;;;8.57;4.00;;;-0.60;99.90;;;;;;5114444;28;20066;-77
2024/01/08 04:24:48;;;;;;;7.38;3.42;;;-0.60;99.90;;;;;;5113637;28;20118;-77
2024/01/08 04:27:14;;;;;;;8.40;3.95;;;-0.60;99.90;;;;;;5098225;28;20038;-77
2024/01/08 04:29:39;;;;;;;8.63;3.97;;;-0.60;99.90;;;;;;5098515;28;20024;-77
2024/01/08 04:32:05;;;;;;;161.98;125.07;;;-0.60;99.90;;;;;;5130974;27;20123;-77
2024/01/08 04:34:31;;;;;;;9.27;4.38;;;-0.60;99.90;;;;;;5113932;27;20038;-77
2024/01/08 04:36:56;;;;;;;8.55;3.85;;;-0.60;99.90;;;;;;5114324;28;20077;-77
2024/01/08 04:39:22;;;;;;;7.20;4.15;;;-0.70;99.90;;;;;;5149432;27;20039;-77
2024/01/08 04:41:48;;;;;;;8.07;3.60;;;-0.70;99.90;;;;;;5113473;28;20083;-77
2024/01/08 04:44:14;;;;;;;8.82;3.30;;;-0.70;99.90;;;;;;5095309;28;20044;-77
2024/01/08 04:46:41;;;;;;;7.53;3.30;;;-0.80;99.90;;;;;;5148481;27;20115;-77
2024/01/08 04:49:07;;;;;;;5.20;2.38;;;-0.80;99.90;;;;;;5097870;28;20061;-77
2024/01/08 04:51:33;;;;;;;7.82;3.05;;;-0.80;99.90;;;;;;5149399;27;20441;-77
2024/01/08 04:54:00;;;;;;;4.70;2.25;;;-0.90;99.90;;;;;;5146161;27;20420;-77
2024/01/08 04:56:27;;;;;;;7.18;2.72;;;-0.80;99.90;;;;;;5131814;27;20152;-77
2024/01/08 04:58:53;;;;;;;5.97;2.63;;;-0.80;99.90;;;;;;5131859;27;20070;-77
2024/01/08 05:01:19;;;;;;;6.47;2.75;;;-0.80;99.90;;;;;;5131085;27;20499;-77
2024/01/08 05:03:45;;;;;;;7.65;2.92;;;-0.80;99.90;;;;;;5147585;27;20081;-77
2024/01/08 05:06:12;;;;;;;8.45;3.40;;;-0.90;99.90;;;;;;5096630;28;20039;-77
2024/01/08 05:08:40;;;;;;;6.88;3.00;;;-0.90;99.90;;;;;;5114514;28;20510;-77
2024/01/08 05:11:06;;;;;;;6.82;2.83;;;-0.90;99.90;;;;;;5113932;28;20044;-77
2024/01/08 05:13:33;;;;;;;7.80;2.90;;;-0.90;99.90;;;;;;5128825;27;20074;-77
2024/01/08 05:15:59;;;;;;;7.93;2.95;;;-0.90;99.90;;;;;;5131700;27;20104;-77
2024/01/08 05:18:24;;;;;;;5.30;2.50;;;-0.90;99.90;;;;;;5130685;27;20484;-77
2024/01/08 05:20:50;;;;;;;6.50;3.03;;;-0.90;99.90;;;;;;5131427;27;20043;-77
2024/01/08 05:23:16;;;;;;;6.55;3.03;;;-0.90;99.90;;;;;;5096103;28;20040;-77
2024/01/08 05:25:41;;;;;;;7.22;2.78;;;-1.00;99.90;;;;;;5112682;28;20506;-77
2024/01/08 05:28:07;;;;;;;8.23;3.15;;;-1.00;99.90;;;;;;5096085;28;20039;-77
2024/01/08 05:30:33;;;;;;;6.50;2.60;;;-1.00;99.90;;;;;;5148542;27;20105;-78
2024/01/08 05:32:59;;;;;;;7.78;3.00;;;-1.00;99.90;;;;;;5131157;27;20160;-78
2024/01/08 05:35:24;;;;;;;4.68;2.60;;;-1.00;99.90;;;;;;5110452;28;20040;-77
2024/01/08 05:37:50;;;;;;;7.38;2.67;;;-1.00;99.90;;;;;;5096927;28;20035;-77
2024/01/08 05:40:16;;;;;;;7.07;3.40;;;-1.00;99.90;;;;;;5096312;28;20047;-78
2024/01/08 05:42:41;;;;;;;6.35;2.42;;;-1.00;99.90;;;;;;5148465;27;20047;-78
2024/01/08 05:45:07;;;;;;;6.38;2.83;;;-1.00;99.90;;;;;;5145377;27;20039;-78
2024/01/08 05:47:36;;;;;;;6.60;2.80;;;-0.90;99.90;;;;;;5130947;27;20404;-78
2024/01/08 05:50:04;;;;;;;6.80;3.40;;;-0.90;99.90;;;;;;5148140;27;20071;-78
2024/01/08 05:52:30;;;;;;;6.47;3.00;;;-1.00;99.90;;;;;;5148310;27;20520;-78
2024/01/08 05:54:56;;;;;;;8.15;3.13;;;-1.00;99.90;;;;;;5094935;28;20057;-78
2024/01/08 05:57:22;;;;;;;8.10;3.17;;;-1.00;99.90;;;;;;5113539;28;20050;-78
2024/01/08 05:59:47;;;;;;;7.05;2.78;;;-1.00;99.90;;;;;;5113314;28;20467;-78
2024/01/08 06:02:13;;;;;;;7.57;2.85;;;-1.00;99.90;;;;;;5095621;28;20040;-78
2024/01/08 06:04:39;;;;;;;6.13;2.70;;;-1.00;99.90;;;;;;5127320;27;20505;-78
2024/01/08 06:07:05;;;;;;;6.65;3.00;;;-1.00;99.90;;;;;;5113722;28;20039;-78
2024/01/08 06:09:30;;;;;;;9.82;2.83;;;-0.90;99.90;;;;;;5096456;28;20074;-78
2024/01/08 06:11:58;;;;;;;6.13;2.55;;;-1.00;99.90;;;;;;5113267;28;20035;-78
2024/01/08 06:14:25;;;;;;;6.90;3.20;;;-0.90;99.90;;;;;;5112094;28;20050;-78
2024/01/08 06:16:50;;;;;;;14.63;3.50;;;-1.00;99.90;;;;;;5111731;28;20062;-78
2024/01/08 06:19:16;;;;;;;8.32;3.08;;;-0.90;99.90;;;;;;5145322;27;20040;-78
2024/01/08 06:21:41;;;;;;;7.20;3.53;;;-0.90;99.90;;;;;;5129214;27;20046;-79
2024/01/08 06:24:07;;;;;;;3.45;1.50;;;-0.90;99.90;;;;;;5095238;28;20055;-78
2024/01/08 06:26:34;;;;;;;8.38;3.47;;;-0.90;99.90;;;;;;5128179;27;20067;-78
2024/01/08 06:29:00;;;;;;;8.57;3.63;;;-0.90;99.90;;;;;;5095960;28;20031;-78
2024/01/08 06:31:26;;;;;;;8.82;3.42;;;-0.90;99.90;;;;;;5113085;28;20175;-78
2024/01/08 06:33:52;;;;;;;8.95;2.72;;;-0.80;99.90;;;;;;5145770;27;20043;-78
2024/01/08 06:36:18;;;;;;;8.45;3.35;;;-0.80;99.90;;;;;;5093891;28;20527;-78
2024/01/08 06:38:43;;;;;;;6.05;2.75;;;-0.80;99.90;;;;;;5129890;27;20453;-78
2024/01/08 06:41:10;;;;;;;7.72;2.90;;;-0.70;99.90;;;;;;5147122;27;20036;-78
2024/01/08 06:43:35;;;;;;;10.60;3.20;;;-0.70;99.90;;;;;;5111733;28;20046;-78
2024/01/08 06:46:01;;;;;;;7.75;3.45;;;-0.70;99.90;;;;;;5128710;27;20039;-78
2024/01/08 06:48:27;;;;;;;7.93;3.63;;;-0.70;99.90;;;;;;5075716;28;20467;-77
2024/01/08 06:50:52;;;;;;;6.93;3.28;;;-0.70;99.90;;;;;;5095615;28;20043;-77
2024/01/08 06:53:18;;;;;;;9.80;3.03;;;-0.70;99.90;;;;;;5094456;28;20039;-77
2024/01/08 06:55:44;;;;;;;8.98;3.47;;;-0.70;99.90;;;;;;5129763;27;20127;-77
2024/01/08 06:58:09;;;;;;;7.43;3.95;;;-0.70;99.90;;;;;;5128419;27;20051;-78
2024/01/08 07:00:35;;;;;;;7.30;3.13;;;-0.70;99.90;;;;;;5094977;28;20035;-78
2024/01/08 07:03:01;;;;;;;7.22;3.80;;;-0.70;99.90;;;;;;5144797;27;20031;-77
2024/01/08 07:05:26;;;;;;;7.97;3.92;;;-0.60;99.90;;;;;;5146920;27;20036;-77
2024/01/08 07:07:53;;;;;;;9.35;3.22;;;-0.60;99.90;;;;;;5110294;28;20028;-77
2024/01/08 07:10:19;;;;;;;6.20;2.80;;;-0.50;99.90;;;;;;5093432;28;20400;-78
2024/01/08 07:12:45;;;;;;;10.50;3.20;;;-0.40;99.90;;;;;;5128747;28;20035;-78
2024/01/08 07:15:41;;;;;;;6.82;3.08;;;-0.60;99.90;;;;;;5111544;28;20043;-78
2024/01/08 07:18:10;;;;;;;5.20;2.17;;;-0.50;99.90;;;;;;5131791;27;20046;-77
2024/01/08 07:20:37;;;;;;;7.70;2.90;;;-0.50;99.90;;;;;;5098863;28;20074;-77
2024/01/08 07:23:04;;;;;;;8.07;2.58;;;-0.50;99.90;;;;;;5116531;28;20055;-77
2024/01/08 07:25:29;;;;;;;5.78;2.30;;;-0.50;99.90;;;;;;5115394;28;20043;-77
2024/01/08 07:27:55;;;;;;;6.22;2.67;;;-0.40;99.90;;;;;;5149189;27;20031;-77
2024/01/08 07:30:21;;;;;;;6.75;2.92;;;-0.30;99.90;;;;;;5118116;27;20039;-77
2024/01/08 07:32:48;;;;;;;9.32;3.58;;;-0.40;99.90;;;;;;5110564;27;20515;-77
2024/01/08 07:35:14;;;;;;;7.80;3.28;;;-0.50;99.90;;;;;;5117667;27;20039;-79
2024/01/08 07:37:39;;;;;;;8.48;3.05;;;-0.40;99.90;;;;;;5072758;27;20036;-77
2024/01/08 07:40:06;;;;;;;6.43;2.63;;;-0.40;99.90;;;;;;5093619;27;20475;-77
2024/01/08 07:42:32;;;;;;;7.07;3.28;;;-0.40;99.90;;;;;;5117900;27;20032;-77
2024/01/08 07:44:58;;;;;;;7.38;2.72;;;-0.40;99.90;;;;;;5139057;27;20069;-78
2024/01/08 07:47:23;;;;;;;9.25;3.70;;;-0.30;99.90;;;;;;5094731;28;20039;-77
2024/01/08 07:49:49;;;;;;;7.97;3.33;;;-0.40;99.90;;;;;;5112799;28;20035;-77
2024/01/08 07:52:15;;;;;;;7.45;2.88;;;-0.30;99.90;;;;;;5097081;28;20036;-77
2024/01/08 07:54:40;;;;;;;7.65;3.63;;;-0.30;99.90;;;;;;5095896;28;20039;-77
2024/01/08 07:57:06;;;;;;;9.75;3.67;;;-0.40;99.90;;;;;;5094809;28;20129;-77
2024/01/08 07:59:31;;;;;;;8.68;3.50;;;-0.40;99.90;;;;;;5141017;27;20047;-77
2024/01/08 08:01:57;;;;;;;9.02;3.15;;;-0.40;99.90;;;;;;5092781;28;20450;-77
2024/01/08 08:04:23;;;;;;;4.07;1.58;;;-0.40;99.90;;;;;;5104755;28;20481;-77
2024/01/08 08:06:48;;;;;;;7.03;2.55;;;-0.30;99.90;;;;;;5077805;28;20043;-77
2024/01/08 08:09:14;;;;;;;7.85;3.40;;;-0.30;99.90;;;;;;5092383;27;20139;-77
2024/01/08 08:11:39;;;;;;;7.65;3.10;;;-0.30;99.90;;;;;;5110507;28;20551;-77
2024/01/08 08:14:05;;;;;;;8.27;3.42;;;-0.30;99.90;;;;;;5148594;27;20047;-77
2024/01/08 08:16:31;;;;;;;6.45;1.95;;;-0.30;99.90;;;;;;5095991;27;20040;-77
2024/01/08 08:18:56;;;;;;;10.13;2.95;;;-0.30;99.90;;;;;;5070882;28;20543;-77
2024/01/08 08:21:22;;;;;;;6.38;3.10;;;-0.30;99.90;;;;;;5100859;27;20044;-77
2024/01/08 08:23:48;;;;;;;5.85;2.40;;;-0.30;99.90;;;;;;5102216;27;20055;-77
2024/01/08 08:26:14;;;;;;;9.57;2.83;;;-0.30;99.90;;;;;;5092253;27;20036;-77
2024/01/08 08:28:40;;;;;;;8.30;3.22;;;-0.30;99.90;;;;;;5100728;27;20256;-78
2024/01/08 08:31:05;;;;;;;6.07;2.58;;;-0.20;99.90;;;;;;5104179;27;20048;-77
2024/01/08 08:33:31;;;;;;;9.05;2.88;;;-0.30;99.90;;;;;;5087657;27;20088;-77
2024/01/08 08:35:57;;;;;;;9.25;3.13;;;-0.30;99.90;;;;;;5104263;27;20036;-77
2024/01/08 08:38:22;;;;;;;7.40;2.70;;;-0.30;99.90;;;;;;5121474;27;20035;-77
2024/01/08 08:40:48;;;;;;;8.50;2.70;;;-0.30;99.90;;;;;;5120894;27;20870;-77
2024/01/08 08:43:14;;;;;;;8.63;2.90;;;-0.10;99.90;;;;;;5119358;27;20748;-77
2024/01/08 08:45:39;;;;;;;8.57;2.95;;;-0.10;99.90;;;;;;5119247;27;20048;-77
2024/01/08 08:48:05;;;;;;;8.43;2.92;;;-0.20;99.90;;;;;;5089037;27;20043;-77
2024/01/08 08:50:31;;;;;;;9.07;2.85;;;-0.10;99.90;;;;;;5080827;27;20040;-77
2024/01/08 08:52:57;;;;;;;7.18;2.95;;;-0.10;99.90;;;;;;5105626;27;20104;-77
2024/01/08 08:55:22;;;;;;;10.48;2.55;;;-0.10;99.90;;;;;;5115273;27;20070;-78
2024/01/08 08:57:48;;;;;;;8.45;2.90;;;-0.10;99.90;;;;;;5069309;28;20058;-77
2024/01/08 09:00:14;;;;;;;8.52;2.95;;;-0.10;99.90;;;;;;5086480;27;20465;-78
2024/01/08 09:02:40;;;;;;;4.97;2.20;;;0.00;99.90;;;;;;5066962;28;20040;-78
2024/01/08 09:05:07;;;;;;;7.45;2.50;;;0.00;99.90;;;;;;5102158;27;20466;-77
2024/01/08 09:07:33;;;;;;;10.70;3.55;;;-0.10;99.90;;;;;;5109041;27;20044;-77
2024/01/08 09:10:00;;;;;;;7.65;2.65;;;-0.10;99.90;;;;;;5120487;27;20586;-77
2024/01/08 09:12:26;;;;;;;6.60;2.60;;;-0.10;99.90;;;;;;5068187;28;20040;-77
2024/01/08 09:14:52;;;;;;;5.18;2.17;;;-0.10;99.90;;;;;;5105019;27;20044;-77
2024/01/08 09:17:18;;;;;;;7.90;3.00;;;-0.10;99.90;;;;;;5098293;27;20077;-77
2024/01/08 09:19:44;;;;;;;5.28;2.70;;;-0.10;99.90;;;;;;5106134;27;20189;-77
2024/01/08 09:22:10;;;;;;;6.03;2.42;;;-0.10;99.90;;;;;;5126508;27;20043;-77
2024/01/08 09:24:35;;;;;;;7.72;2.47;;;0.00;99.90;;;;;;5104194;27;20024;-77
2024/01/08 09:27:02;;;;;;;5.13;2.08;;;0.00;99.90;;;;;;5109447;28;20112;-77
2024/01/08 09:29:28;;;;;;;6.57;2.58;;;0.00;99.90;;;;;;5122244;27;20088;-77
2024/01/08 09:31:53;;;;;;;8.60;2.55;;;0.00;99.90;;;;;;5145241;27;20031;-77
2024/01/08 09:34:19;;;;;;;4.68;1.90;;;0.10;99.90;;;;;;5112893;28;20074;-77
2024/01/08 09:36:45;;;;;;;5.00;2.05;;;0.10;99.90;;;;;;5094847;28;20419;-77
2024/01/08 09:39:11;;;;;;;4.13;1.90;;;0.10;99.90;;;;;;5130021;27;20039;-77
2024/01/08 09:41:37;;;;;;;7.38;2.72;;;0.20;99.90;;;;;;5093786;28;20522;-77
2024/01/08 09:44:04;;;;;;;7.25;2.97;;;0.10;99.90;;;;;;5095359;28;20039;-77
2024/01/08 09:46:38;;;;;;;7.13;2.80;;;0.10;99.90;;;;;;5126894;27;20104;-77
2024/01/08 09:49:04;;;;;;;6.60;2.30;;;0.10;99.90;;;;;;5129699;27;20079;-77
2024/01/08 09:51:30;;;;;;;6.78;2.45;;;0.20;99.90;;;;;;5110764;28;20111;-77
2024/01/08 09:53:58;;;;;;;6.90;2.63;;;0.10;99.90;;;;;;5095166;28;20093;-77
2024/01/08 09:56:26;;;;;;;6.65;2.70;;;0.20;99.90;;;;;;5128534;27;20067;-77
2024/01/08 09:58:51;;;;;;;5.57;1.95;;;0.20;99.90;;;;;;5128649;27;20080;-77
2024/01/08 10:01:17;;;;;;;12.85;1.85;;;0.30;99.90;;;;;;5093451;28;20046;-76
2024/01/08 10:03:43;;;;;;;6.40;2.80;;;0.30;99.90;;;;;;5103843;28;20027;-77
2024/01/08 10:06:09;;;;;;;8.75;2.90;;;0.30;99.90;;;;;;5110912;28;20429;-77
2024/01/08 10:08:35;;;;;;;5.13;2.25;;;0.30;99.90;;;;;;5112312;28;20452;-77
2024/01/08 10:11:03;;;;;;;7.40;2.72;;;0.30;99.90;;;;;;5141250;27;20104;-77
2024/01/08 10:13:29;;;;;;;4.68;1.80;;;0.30;99.90;;;;;;5108894;28;20031;-77
2024/01/08 10:15:54;;;;;;;6.18;2.33;;;0.40;99.90;;;;;;5112063;27;20039;-77
2024/01/08 10:18:22;;;;;;;8.57;2.63;;;0.40;99.90;;;;;;5107203;27;20058;-74
2024/01/08 10:20:48;;;;;;;8.38;3.28;;;0.50;99.90;;;;;;5120762;27;20043;-75
2024/01/08 10:23:16;;;;;;;8.40;2.35;;;0.40;99.90;;;;;;5108151;28;20507;-76
2024/01/08 10:25:52;;;;;;;5.63;2.72;;;0.40;99.90;;;;;;5090832;28;20036;-76
2024/01/08 10:28:19;;;;;;;9.00;2.55;;;0.50;99.90;;;;;;5128262;27;20070;-76
2024/01/08 10:30:44;;;;;;;8.68;3.00;;;0.50;99.90;;;;;;5092860;28;20040;-76
2024/01/08 10:33:10;;;;;;;9.48;3.58;;;0.50;99.90;;;;;;5124950;27;20373;-76
2024/01/08 10:35:37;;;;;;;4.10;2.13;;;0.50;99.90;;;;;;5111223;28;20122;-76
2024/01/08 10:38:04;;;;;;;5.00;2.03;;;0.50;99.90;;;;;;5103077;28;20031;-76
2024/01/08 10:40:30;;;;;;;4.85;2.05;;;0.40;99.90;;;;;;5110627;28;20504;-76
2024/01/08 10:42:56;;;;;;;8.23;2.58;;;0.40;99.90;;;;;;5143312;27;20041;-75
2024/01/08 10:45:22;;;;;;;5.40;2.15;;;0.40;99.90;;;;;;5124112;27;20058;-75
2024/01/08 10:48:21;;;;;;;7.22;2.83;;;0.50;99.90;;;;;;5123462;27;20040;-76
2024/01/08 10:50:51;;;;;;;5.30;2.30;;;0.60;99.90;;;;;;5052956;28;20044;-76
2024/01/08 10:53:26;;;;;;;5.88;2.20;;;0.50;99.90;;;;;;5127273;27;20051;-76
2024/01/08 10:55:52;;;;;;;6.97;2.30;;;0.60;99.90;;;;;;5108900;28;20126;-77
2024/01/08 10:58:29;;;;;;;7.55;2.55;;;0.60;99.90;;;;;;5128219;27;20519;-77
2024/01/08 11:00:56;;;;;;;6.82;2.80;;;0.50;99.90;;;;;;5126198;27;20043;-77
2024/01/08 11:03:21;;;;;;;4.85;2.20;;;0.50;99.90;;;;;;5112004;28;20118;-76
2024/01/08 11:05:51;;;;;;;5.50;2.40;;;0.40;99.90;;;;;;5089942;28;21236;-77
2024/01/08 11:08:20;;;;;;;13.57;2.95;;;0.40;99.90;;;;;;5126488;27;20118;-76
2024/01/08 11:10:45;;;;;;;7.95;2.45;;;0.40;99.90;;;;;;5090250;28;20039;-77
2024/01/08 11:13:12;;;;;;;6.43;2.47;;;0.50;99.90;;;;;;5111329;28;20035;-77
2024/01/08 11:15:37;;;;;;;4.28;1.85;;;0.50;99.90;;;;;;5093572;28;20039;-77
2024/01/08 11:18:05;;;;;;;5.63;2.33;;;0.60;99.90;;;;;;5129090;28;20073;-77
2024/01/08 11:20:33;;;;;;;6.80;2.50;;;0.60;99.90;;;;;;5142586;27;20047;-77
2024/01/08 11:23:01;;;;;;;6.78;2.85;;;0.60;99.90;;;;;;5143428;27;20515;-77
2024/01/08 11:25:27;;;;;;;14.38;3.65;;;0.60;99.90;;;;;;5122599;27;20040;-76
2024/01/08 11:27:57;;;;;;;10.20;2.85;;;0.60;99.90;;;;;;5088362;28;20044;-76
2024/01/08 11:30:23;;;;;;;7.82;2.45;;;0.50;99.90;;;;;;5116837;28;20067;-77
2024/01/08 11:33:03;;;;;;;8.90;2.47;;;0.60;99.90;;;;;;5109558;28;20067;-76
2024/01/08 11:35:29;;;;;;;10.70;2.60;;;0.50;99.90;;;;;;5134695;27;20035;-77
2024/01/08 11:38:28;;;;;;;7.18;2.35;;;0.50;99.90;;;;;;5122767;27;20046;-77
2024/01/08 11:40:55;;;;;;;7.55;3.58;;;0.60;99.90;;;;;;5136273;27;20059;-77
2024/01/08 11:43:22;;;;;;;12.57;2.90;;;0.50;99.90;;;;;;5122516;27;20032;-77
2024/01/08 11:45:48;;;;;;;5.47;2.10;;;0.50;99.90;;;;;;5121872;27;20081;-77
2024/01/08 11:48:13;;;;;;;5.70;2.03;;;0.50;99.90;;;;;;5088943;28;20455;-77
2024/01/08 11:50:42;;;;;;;4.85;1.90;;;0.40;99.90;;;;;;5090014;28;20043;-77
2024/01/08 11:53:10;;;;;;;10.07;2.40;;;0.50;99.90;;;;;;5091551;28;20440;-77
2024/01/08 11:55:35;;;;;;;11.05;2.38;;;0.50;99.90;;;;;;5108923;28;20035;-77
2024/01/08 11:58:03;;;;;;;5.95;2.40;;;0.50;99.90;;;;;;5090474;28;20490;-77
2024/01/08 12:00:29;;;;;;;5.95;2.45;;;0.50;99.90;;;;;;5116063;28;20507;-77
2024/01/08 12:03:02;;;;;;;5.45;2.30;;;0.60;99.90;;;;;;5102773;27;20049;-77
2024/01/08 12:05:28;;;;;;;6.10;2.65;;;0.50;99.90;;;;;;5152594;27;20148;-77
2024/01/08 12:07:54;;;;;;;7.68;2.10;;;0.50;99.90;;;;;;5115654;27;20126;-77
2024/01/08 12:10:20;;;;;;;7.90;2.47;;;0.60;99.90;;;;;;5108889;28;20039;-78
2024/01/08 12:12:46;;;;;;;6.63;2.67;;;0.50;99.90;;;;;;5135213;27;20035;-77
2024/01/08 12:15:11;;;;;;;5.20;2.25;;;0.40;99.90;;;;;;5091811;28;20132;-77
2024/01/08 12:17:38;;;;;;;9.68;2.80;;;0.50;99.90;;;;;;5091120;28;20426;-77
2024/01/08 12:20:04;;;;;;;5.70;2.25;;;0.50;99.90;;;;;;5140761;27;20043;-77
2024/01/08 12:22:31;;;;;;;6.22;2.50;;;0.60;99.90;;;;;;5140967;27;20040;-77
2024/01/08 12:24:56;;;;;;;7.35;2.70;;;0.70;99.90;;;;;;5103146;27;20050;-77
2024/01/08 12:27:30;;;;;;;9.07;2.92;;;0.70;99.90;;;;;;5127706;27;20422;-77
2024/01/08 12:29:57;;;;;;;5.07;2.15;;;0.70;99.90;;;;;;5097134;28;20046;-76
2024/01/08 12:32:24;;;;;;;10.85;3.50;;;0.80;99.90;;;;;;5131181;27;20519;-77
2024/01/08 12:34:50;;;;;;;6.72;2.40;;;0.70;99.90;;;;;;5143546;27;20035;-77
2024/01/08 12:37:18;;;;;;;7.65;2.78;;;0.80;99.90;;;;;;5094040;28;20036;-76
2024/01/08 12:39:44;;;;;;;9.50;3.70;;;0.80;99.90;;;;;;5113630;28;20039;-76
2024/01/08 12:42:14;;;;;;;6.13;2.58;;;0.70;99.90;;;;;;5130813;27;20040;-78
2024/01/08 12:44:41;;;;;;;10.38;3.08;;;0.70;99.90;;;;;;5143093;27;20028;-76